Time;durP1;ratioP1;P1;durP2;ratioP2;P2;SDS_P1;SDS_P2;PMS_P1;PMS_P2;Temp;Humidity;BMP_temperature;BMP_pressure;BME280_temperature;BME280_humidity;BME280_pressure;Samples;Min_cycle;Max_cycle;Signal;HPM_P1;HPM_P2
2023/12/18 00:02:18;;;;;;;36.75;17.90;;;;;;;;;;6116141;23;20014;-72
2023/12/18 00:04:44;;;;;;;34.63;16.15;;;;;;;;;;6116970;23;20353;-73
2023/12/18 00:07:09;;;;;;;32.85;17.92;;;;;;;;;;6117832;23;20392;-73
2023/12/18 00:09:35;;;;;;;52.72;27.35;;;;;;;;;;6091994;23;20002;-72
2023/12/18 00:12:01;;;;;;;64.95;29.70;;;;;;;;;;6091842;23;20013;-73
2023/12/18 00:14:27;;;;;;;43.17;24.00;;;;;;;;;;6117334;23;20032;-73
2023/12/18 00:16:52;;;;;;;34.90;18.30;;;;;;;;;;6118588;23;20404;-73
2023/12/18 00:19:18;;;;;;;35.40;18.08;;;;;;;;;;6117946;23;20100;-73
2023/12/18 00:21:44;;;;;;;29.92;16.75;;;;;;;;;;6118291;23;20010;-72
2023/12/18 00:24:10;;;;;;;23.95;13.88;;;;;;;;;;6117573;23;20017;-73
2023/12/18 00:26:35;;;;;;;30.65;14.27;;;;;;;;;;6117759;23;20041;-73
2023/12/18 00:29:01;;;;;;;29.17;13.35;;;;;;;;;;6117742;23;20048;-74
2023/12/18 00:31:27;;;;;;;26.08;13.27;;;;;;;;;;6115563;23;20020;-73
2023/12/18 00:33:52;;;;;;;21.08;12.75;;;;;;;;;;6115792;23;20014;-72
2023/12/18 00:36:18;;;;;;;25.15;12.98;;;;;;;;;;6117461;23;20476;-73
2023/12/18 00:38:44;;;;;;;23.42;12.90;;;;;;;;;;6118098;23;20010;-73
2023/12/18 00:41:09;;;;;;;26.02;14.50;;;;;;;;;;6115950;23;20049;-73
2023/12/18 00:43:35;;;;;;;23.60;13.23;;;;;;;;;;6116823;23;20006;-73
2023/12/18 00:46:04;;;;;;;19.67;12.20;;;;;;;;;;6117753;23;20018;-73
2023/12/18 00:48:29;;;;;;;21.92;11.77;;;;;;;;;;6115927;23;20452;-73
2023/12/18 00:50:56;;;;;;;26.83;15.43;;;;;;;;;;6117638;23;20247;-73
2023/12/18 00:53:21;;;;;;;27.58;16.55;;;;;;;;;;6117319;23;20009;-73
2023/12/18 00:55:48;;;;;;;32.10;17.02;;;;;;;;;;6117424;23;20441;-73
2023/12/18 00:58:13;;;;;;;31.17;16.52;;;;;;;;;;6116628;23;20001;-73
2023/12/18 01:00:40;;;;;;;28.98;17.02;;;;;;;;;;6115371;23;20018;-73
2023/12/18 01:03:06;;;;;;;30.55;16.50;;;;;;;;;;6116031;23;20005;-72
2023/12/18 01:05:32;;;;;;;31.88;16.73;;;;;;;;;;6117711;23;20437;-72
2023/12/18 01:07:58;;;;;;;32.55;16.27;;;;;;;;;;6116304;23;20065;-74
2023/12/18 01:10:23;;;;;;;25.35;15.00;;;;;;;;;;6117566;23;20012;-74
2023/12/18 01:12:49;;;;;;;25.95;15.27;;;;;;;;;;6117351;23;20002;-73
2023/12/18 01:15:16;;;;;;;25.10;15.30;;;;;;;;;;6091145;23;20433;-73
2023/12/18 01:17:41;;;;;;;27.50;16.20;;;;;;;;;;6116868;23;20080;-73
2023/12/18 01:20:08;;;;;;;29.13;17.65;;;;;;;;;;6094259;23;20013;-72
2023/12/18 01:22:34;;;;;;;29.30;15.40;;;;;;;;;;6129809;23;20005;-73
2023/12/18 01:25:03;;;;;;;30.48;16.73;;;;;;;;;;6073537;23;20065;-72
2023/12/18 01:27:28;;;;;;;26.67;15.30;;;;;;;;;;6116033;23;20021;-73
2023/12/18 01:29:54;;;;;;;29.27;15.02;;;;;;;;;;6118125;23;20022;-72
2023/12/18 01:32:20;;;;;;;30.50;15.13;;;;;;;;;;6121693;23;20009;-73
2023/12/18 01:34:46;;;;;;;30.88;15.65;;;;;;;;;;6123178;23;20018;-73
2023/12/18 01:37:11;;;;;;;30.83;14.63;;;;;;;;;;6098961;23;20413;-72
2023/12/18 01:39:37;;;;;;;25.40;13.95;;;;;;;;;;6124723;23;20010;-73
2023/12/18 01:42:03;;;;;;;26.38;14.50;;;;;;;;;;6124727;23;20002;-73
2023/12/18 01:44:29;;;;;;;20.73;12.68;;;;;;;;;;6123161;23;20097;-74
2023/12/18 01:46:56;;;;;;;24.73;12.70;;;;;;;;;;6123475;23;20044;-72
2023/12/18 01:49:22;;;;;;;24.58;13.32;;;;;;;;;;6124484;23;20341;-73
2023/12/18 01:51:48;;;;;;;25.08;12.98;;;;;;;;;;6124724;23;20455;-73
2023/12/18 01:54:18;;;;;;;32.53;13.98;;;;;;;;;;6122965;23;20009;-73
2023/12/18 01:56:44;;;;;;;26.60;12.50;;;;;;;;;;6124925;23;20016;-73
2023/12/18 01:59:10;;;;;;;24.15;11.02;;;;;;;;;;6124957;23;20340;-73
2023/12/18 02:01:37;;;;;;;19.10;11.00;;;;;;;;;;6124739;23;20452;-73
2023/12/18 02:04:03;;;;;;;22.02;12.38;;;;;;;;;;6125046;23;20033;-72
2023/12/18 02:06:29;;;;;;;21.92;12.48;;;;;;;;;;6126846;23;20014;-72
2023/12/18 02:08:58;;;;;;;22.58;11.82;;;;;;;;;;6126689;23;20008;-73
2023/12/18 02:11:24;;;;;;;22.33;12.23;;;;;;;;;;6126562;23;20017;-73
2023/12/18 02:13:50;;;;;;;25.73;13.35;;;;;;;;;;6127229;23;20002;-73
2023/12/18 02:16:16;;;;;;;23.13;12.85;;;;;;;;;;6127022;23;20444;-72
2023/12/18 02:18:43;;;;;;;26.40;13.88;;;;;;;;;;6126479;23;20088;-72
2023/12/18 02:21:09;;;;;;;27.42;13.82;;;;;;;;;;6126546;23;20109;-74
2023/12/18 02:23:35;;;;;;;27.20;14.88;;;;;;;;;;6126342;23;20009;-73
2023/12/18 02:26:00;;;;;;;27.73;13.98;;;;;;;;;;6124964;23;20071;-73
2023/12/18 02:28:26;;;;;;;21.33;12.75;;;;;;;;;;6126857;23;20417;-73
2023/12/18 02:30:52;;;;;;;27.38;15.05;;;;;;;;;;6126934;23;20016;-74
2023/12/18 02:33:18;;;;;;;24.40;13.52;;;;;;;;;;6126165;23;20006;-73
2023/12/18 02:35:44;;;;;;;29.13;14.75;;;;;;;;;;6126468;23;20017;-73
2023/12/18 02:38:10;;;;;;;24.20;13.70;;;;;;;;;;6126443;23;20001;-73
2023/12/18 02:40:36;;;;;;;24.90;13.25;;;;;;;;;;6126343;23;20038;-73
2023/12/18 02:43:01;;;;;;;24.33;13.02;;;;;;;;;;6100310;23;20073;-73
2023/12/18 02:45:27;;;;;;;24.90;14.10;;;;;;;;;;6126498;23;20018;-72
2023/12/18 02:47:53;;;;;;;28.75;14.45;;;;;;;;;;6126191;23;20010;-73
2023/12/18 02:50:18;;;;;;;27.63;13.63;;;;;;;;;;6126263;23;20089;-73
2023/12/18 02:52:44;;;;;;;29.00;14.85;;;;;;;;;;6126015;23;20002;-72
2023/12/18 02:55:12;;;;;;;24.42;13.27;;;;;;;;;;6126071;23;20018;-73
2023/12/18 02:57:39;;;;;;;28.45;13.75;;;;;;;;;;6126237;23;20040;-72
2023/12/18 03:00:05;;;;;;;26.23;14.18;;;;;;;;;;6126451;23;20080;-73
2023/12/18 03:02:31;;;;;;;26.48;14.13;;;;;;;;;;6125899;23;20084;-72
2023/12/18 03:04:57;;;;;;;29.00;14.75;;;;;;;;;;6125776;23;20041;-73
2023/12/18 03:07:22;;;;;;;28.98;15.05;;;;;;;;;;6125648;23;20368;-73
2023/12/18 03:09:49;;;;;;;28.10;14.07;;;;;;;;;;6126412;23;20313;-73
2023/12/18 03:12:15;;;;;;;24.48;13.18;;;;;;;;;;6126731;23;20010;-73
2023/12/18 03:14:41;;;;;;;25.75;13.38;;;;;;;;;;6125885;23;20457;-73
2023/12/18 03:17:07;;;;;;;23.00;12.63;;;;;;;;;;6125513;23;20002;-72
2023/12/18 03:19:33;;;;;;;21.95;11.77;;;;;;;;;;6124348;23;20013;-73
2023/12/18 03:21:58;;;;;;;19.98;10.07;;;;;;;;;;6125780;23;20002;-72
2023/12/18 03:24:25;;;;;;;24.10;9.40;;;;;;;;;;6125994;23;20010;-73
2023/12/18 03:26:50;;;;;;;19.20;9.70;;;;;;;;;;6099613;23;20006;-73
2023/12/18 03:29:16;;;;;;;21.55;10.80;;;;;;;;;;6125646;23;20010;-73
2023/12/18 03:31:42;;;;;;;23.10;10.95;;;;;;;;;;6125702;23;20006;-73
2023/12/18 03:34:07;;;;;;;23.30;10.52;;;;;;;;;;6124498;23;20116;-72
2023/12/18 03:36:33;;;;;;;18.58;10.43;;;;;;;;;;6125867;23;20171;-73
2023/12/18 03:38:59;;;;;;;23.98;11.05;;;;;;;;;;6124569;23;20088;-73
2023/12/18 03:41:25;;;;;;;20.17;11.50;;;;;;;;;;6125976;23;20002;-73
2023/12/18 03:43:50;;;;;;;17.88;9.95;;;;;;;;;;6125483;23;20034;-73
2023/12/18 03:46:16;;;;;;;21.88;9.98;;;;;;;;;;6125647;23;20033;-72
2023/12/18 03:48:42;;;;;;;22.77;11.02;;;;;;;;;;6125778;23;20347;-73
2023/12/18 03:51:10;;;;;;;24.30;11.23;;;;;;;;;;6125808;23;20002;-72
2023/12/18 03:53:36;;;;;;;25.13;12.50;;;;;;;;;;6125048;23;20010;-73
2023/12/18 03:56:02;;;;;;;36.85;12.60;;;;;;;;;;6125978;23;20009;-73
2023/12/18 03:58:28;;;;;;;30.67;12.43;;;;;;;;;;6125565;23;20006;-73
2023/12/18 04:00:53;;;;;;;22.45;11.63;;;;;;;;;;6125935;23;20084;-73
2023/12/18 04:03:19;;;;;;;29.60;11.18;;;;;;;;;;6125163;23;20010;-71
2023/12/18 04:05:45;;;;;;;20.73;10.32;;;;;;;;;;6125836;23;20006;-73
2023/12/18 04:08:10;;;;;;;24.92;11.50;;;;;;;;;;6125532;23;20014;-74
2023/12/18 04:10:36;;;;;;;26.17;12.35;;;;;;;;;;6125432;23;20002;-72
2023/12/18 04:13:02;;;;;;;21.08;11.30;;;;;;;;;;6124926;23;20010;-73
2023/12/18 04:15:28;;;;;;;22.73;10.35;;;;;;;;;;6123891;23;20085;-74
2023/12/18 04:17:55;;;;;;;19.77;10.57;;;;;;;;;;6125525;23;20054;-73
2023/12/18 04:20:22;;;;;;;27.75;11.27;;;;;;;;;;6125462;23;19998;-73
2023/12/18 04:22:47;;;;;;;22.05;12.10;;;;;;;;;;6124810;23;20074;-74
2023/12/18 04:25:13;;;;;;;24.27;12.50;;;;;;;;;;6124591;23;20472;-72
2023/12/18 04:27:39;;;;;;;34.75;14.40;;;;;;;;;;6126936;23;20459;-74
2023/12/18 04:30:05;;;;;;;30.73;14.02;;;;;;;;;;6138317;23;20002;-74
2023/12/18 04:32:30;;;;;;;30.77;13.38;;;;;;;;;;6130586;23;20429;-72
2023/12/18 04:34:56;;;;;;;34.70;14.20;;;;;;;;;;6124815;23;20002;-72
2023/12/18 04:37:22;;;;;;;32.60;12.60;;;;;;;;;;6098946;23;20002;-73
2023/12/18 04:39:47;;;;;;;30.88;13.88;;;;;;;;;;6124919;23;20077;-72
2023/12/18 04:42:13;;;;;;;23.05;12.18;;;;;;;;;;6099719;23;20037;-72
2023/12/18 04:44:40;;;;;;;26.95;13.05;;;;;;;;;;6124954;23;20057;-73
2023/12/18 04:47:05;;;;;;;35.28;15.48;;;;;;;;;;6098920;23;20032;-73
2023/12/18 04:49:31;;;;;;;40.67;16.48;;;;;;;;;;6124888;23;20374;-72
2023/12/18 04:51:57;;;;;;;43.33;20.08;;;;;;;;;;6121640;23;20025;-73
2023/12/18 04:54:23;;;;;;;32.28;15.25;;;;;;;;;;6123273;23;20054;-74
2023/12/18 04:56:50;;;;;;;32.30;15.63;;;;;;;;;;6124041;23;20014;-74
2023/12/18 04:59:16;;;;;;;43.25;17.92;;;;;;;;;;6123563;23;20009;-72
2023/12/18 05:01:42;;;;;;;37.67;16.35;;;;;;;;;;6098201;23;20013;-73
2023/12/18 05:04:08;;;;;;;44.33;16.15;;;;;;;;;;6123514;23;20121;-73
2023/12/18 05:06:35;;;;;;;27.38;14.68;;;;;;;;;;6123132;23;20018;-73
2023/12/18 05:09:01;;;;;;;37.72;15.27;;;;;;;;;;6124258;23;20399;-72
2023/12/18 05:11:27;;;;;;;28.35;12.75;;;;;;;;;;6123924;23;20073;-73
2023/12/18 05:13:52;;;;;;;37.15;13.57;;;;;;;;;;6123012;23;20115;-73
2023/12/18 05:16:18;;;;;;;26.52;13.88;;;;;;;;;;6124324;23;20472;-72
2023/12/18 05:18:44;;;;;;;35.35;14.77;;;;;;;;;;6097974;23;20437;-71
2023/12/18 05:21:11;;;;;;;38.10;14.82;;;;;;;;;;6123170;23;20036;-71
2023/12/18 05:23:37;;;;;;;34.88;14.60;;;;;;;;;;6122647;23;20081;-71
2023/12/18 05:26:03;;;;;;;34.63;14.75;;;;;;;;;;6123091;23;20017;-73
2023/12/18 05:28:29;;;;;;;31.38;12.02;;;;;;;;;;6124008;23;20002;-72
2023/12/18 05:30:54;;;;;;;27.60;12.85;;;;;;;;;;6120216;23;20013;-72
2023/12/18 05:33:20;;;;;;;24.25;12.60;;;;;;;;;;6118521;23;20002;-73
2023/12/18 05:35:48;;;;;;;27.15;11.77;;;;;;;;;;6122355;23;20028;-72
2023/12/18 05:38:14;;;;;;;27.75;13.35;;;;;;;;;;6123305;23;20002;-72
2023/12/18 05:40:40;;;;;;;33.63;13.25;;;;;;;;;;6123172;23;20069;-72
2023/12/18 05:43:05;;;;;;;29.73;14.00;;;;;;;;;;6123600;23;20037;-73
2023/12/18 05:45:32;;;;;;;33.35;14.95;;;;;;;;;;6122199;23;20037;-72
2023/12/18 05:48:01;;;;;;;39.55;15.98;;;;;;;;;;6121865;23;20049;-72
2023/12/18 05:50:27;;;;;;;30.48;14.95;;;;;;;;;;6123646;23;20037;-73
2023/12/18 05:52:54;;;;;;;32.22;14.73;;;;;;;;;;6098567;23;20005;-73
2023/12/18 05:55:21;;;;;;;29.80;13.82;;;;;;;;;;6122814;23;20433;-73
2023/12/18 05:57:47;;;;;;;41.47;16.33;;;;;;;;;;6123208;23;20006;-74
2023/12/18 06:00:14;;;;;;;41.95;19.60;;;;;;;;;;6123855;23;20106;-72
2023/12/18 06:02:40;;;;;;;50.97;22.05;;;;;;;;;;6123524;23;20002;-72
2023/12/18 06:05:07;;;;;;;43.83;19.15;;;;;;;;;;6123257;23;20010;-74
2023/12/18 06:07:33;;;;;;;35.42;17.52;;;;;;;;;;6096487;23;20002;-74
2023/12/18 06:09:58;;;;;;;36.33;18.60;;;;;;;;;;6121671;23;20021;-73
2023/12/18 06:12:24;;;;;;;41.33;19.20;;;;;;;;;;6123449;23;20365;-73
2023/12/18 06:14:50;;;;;;;36.13;17.17;;;;;;;;;;6123183;23;20021;-73
2023/12/18 06:17:15;;;;;;;44.13;19.85;;;;;;;;;;6096909;23;20358;-74
2023/12/18 06:19:41;;;;;;;49.45;18.30;;;;;;;;;;6122857;23;20341;-74
2023/12/18 06:22:10;;;;;;;36.55;16.23;;;;;;;;;;6123280;23;20033;-73
2023/12/18 06:24:38;;;;;;;30.25;16.38;;;;;;;;;;6123704;23;20332;-73
2023/12/18 06:27:04;;;;;;;29.02;14.32;;;;;;;;;;6123540;23;20013;-74
2023/12/18 06:29:30;;;;;;;41.30;15.95;;;;;;;;;;6122912;23;20014;-74
2023/12/18 06:31:56;;;;;;;38.20;14.65;;;;;;;;;;6121992;23;20342;-74
2023/12/18 06:34:21;;;;;;;32.42;15.07;;;;;;;;;;6121008;23;20010;-74
2023/12/18 06:36:47;;;;;;;29.40;16.92;;;;;;;;;;6121511;23;20612;-73
2023/12/18 06:39:13;;;;;;;35.33;18.58;;;;;;;;;;6097504;23;20085;-73
2023/12/18 06:41:39;;;;;;;36.58;16.67;;;;;;;;;;6122812;23;20009;-73
2023/12/18 06:44:05;;;;;;;28.73;15.32;;;;;;;;;;6121107;23;20017;-74
2023/12/18 06:46:32;;;;;;;33.30;16.23;;;;;;;;;;6123222;23;20302;-73
2023/12/18 06:48:58;;;;;;;25.23;14.88;;;;;;;;;;6123561;23;20014;-75
2023/12/18 06:51:24;;;;;;;25.33;13.63;;;;;;;;;;6124349;23;20010;-74
2023/12/18 06:53:53;;;;;;;27.88;14.82;;;;;;;;;;6124996;23;20353;-75
2023/12/18 06:56:21;;;;;;;47.03;16.73;;;;;;;;;;6099570;23;20006;-74
2023/12/18 06:58:47;;;;;;;27.00;14.52;;;;;;;;;;6125361;23;20017;-74
2023/12/18 07:01:16;;;;;;;30.13;15.10;;;;;;;;;;6125498;23;20001;-74
2023/12/18 07:03:42;;;;;;;32.95;16.48;;;;;;;;;;6125364;23;20089;-73
2023/12/18 07:06:08;;;;;;;34.65;16.30;;;;;;;;;;6125280;23;20009;-74
2023/12/18 07:08:34;;;;;;;35.08;17.10;;;;;;;;;;6123892;23;20323;-74
2023/12/18 07:11:00;;;;;;;33.38;15.13;;;;;;;;;;6124299;23;20006;-74
2023/12/18 07:13:26;;;;;;;38.08;15.27;;;;;;;;;;6098918;23;20010;-74
2023/12/18 07:15:51;;;;;;;31.88;14.77;;;;;;;;;;6075772;23;20006;-74
2023/12/18 07:18:17;;;;;;;30.90;15.80;;;;;;;;;;6125078;23;20506;-75
2023/12/18 07:20:44;;;;;;;39.25;17.05;;;;;;;;;;6124978;23;20009;-74
2023/12/18 07:23:10;;;;;;;34.50;17.33;;;;;;;;;;6123528;23;20013;-75
2023/12/18 07:25:36;;;;;;;27.85;16.30;;;;;;;;;;6123134;23;20437;-74
2023/12/18 07:28:02;;;;;;;31.80;17.23;;;;;;;;;;6124751;23;20384;-75
2023/12/18 07:30:27;;;;;;;33.95;17.50;;;;;;;;;;6099934;23;20045;-74
2023/12/18 07:32:53;;;;;;;28.23;15.77;;;;;;;;;;6125497;23;20014;-75
2023/12/18 07:35:19;;;;;;;27.92;15.65;;;;;;;;;;6124928;23;20006;-73
2023/12/18 07:37:45;;;;;;;31.45;16.45;;;;;;;;;;6105846;23;20088;-73
2023/12/18 07:40:11;;;;;;;31.05;15.27;;;;;;;;;;6108459;23;20033;-75
2023/12/18 07:42:36;;;;;;;30.60;13.30;;;;;;;;;;6125220;23;20029;-74
2023/12/18 07:45:02;;;;;;;27.15;14.10;;;;;;;;;;6123010;23;20409;-73
2023/12/18 07:47:28;;;;;;;28.48;14.18;;;;;;;;;;6125017;23;20104;-74
2023/12/18 07:49:54;;;;;;;20.90;11.23;;;;;;;;;;6074799;23;20037;-74
2023/12/18 07:52:20;;;;;;;25.25;13.07;;;;;;;;;;6123293;23;20358;-73
2023/12/18 07:54:45;;;;;;;23.65;12.57;;;;;;;;;;6124879;23;20248;-75
2023/12/18 07:57:12;;;;;;;26.55;11.65;;;;;;;;;;6099217;23;20012;-75
2023/12/18 07:59:39;;;;;;;27.77;13.77;;;;;;;;;;6125187;23;20085;-74
2023/12/18 08:02:07;;;;;;;24.48;12.38;;;;;;;;;;6098732;23;20010;-74
2023/12/18 08:04:33;;;;;;;25.45;12.02;;;;;;;;;;6124377;23;20005;-73
2023/12/18 08:06:59;;;;;;;29.33;12.45;;;;;;;;;;6124864;23;20017;-73
2023/12/18 08:09:26;;;;;;;20.50;12.88;;;;;;;;;;6124814;23;20278;-74
2023/12/18 08:11:53;;;;;;;25.25;12.70;;;;;;;;;;6124936;23;20017;-73
2023/12/18 08:14:18;;;;;;;21.20;12.65;;;;;;;;;;6098503;23;20464;-74
2023/12/18 08:16:44;;;;;;;18.88;10.52;;;;;;;;;;6124762;23;20010;-74
2023/12/18 08:19:10;;;;;;;25.33;13.50;;;;;;;;;;6124693;23;20009;-73
2023/12/18 08:21:36;;;;;;;20.60;12.07;;;;;;;;;;6125486;23;20014;-75
2023/12/18 08:24:03;;;;;;;32.55;13.98;;;;;;;;;;6122928;23;20016;-74
2023/12/18 08:26:28;;;;;;;26.90;14.32;;;;;;;;;;6124745;23;20018;-76
2023/12/18 08:28:56;;;;;;;21.85;13.13;;;;;;;;;;6124458;23;20010;-76
2023/12/18 08:31:22;;;;;;;19.45;12.35;;;;;;;;;;6125039;23;20006;-77
2023/12/18 08:33:47;;;;;;;30.17;15.80;;;;;;;;;;6098584;23;20081;-76
2023/12/18 08:36:14;;;;;;;22.35;12.75;;;;;;;;;;6125137;23;20113;-78
2023/12/18 08:38:39;;;;;;;24.23;12.50;;;;;;;;;;6122689;23;20060;-77
2023/12/18 08:41:06;;;;;;;26.88;13.98;;;;;;;;;;6097511;23;20156;-77
2023/12/18 08:43:32;;;;;;;25.25;13.65;;;;;;;;;;6124155;23;19998;-77
2023/12/18 08:45:59;;;;;;;27.10;13.68;;;;;;;;;;6124563;23;20010;-76
2023/12/18 08:48:25;;;;;;;24.65;13.48;;;;;;;;;;6123051;23;20010;-77
2023/12/18 08:50:56;;;;;;;22.83;13.10;;;;;;;;;;6123772;23;20010;-77
2023/12/18 08:53:22;;;;;;;26.70;13.65;;;;;;;;;;6123487;23;20013;-77
2023/12/18 08:55:49;;;;;;;27.98;14.45;;;;;;;;;;6124383;23;20095;-78
2023/12/18 08:58:14;;;;;;;35.88;14.43;;;;;;;;;;6098425;23;20460;-77
2023/12/18 09:00:40;;;;;;;26.58;15.07;;;;;;;;;;6124612;23;20006;-79
2023/12/18 09:03:07;;;;;;;35.88;16.48;;;;;;;;;;6098683;23;20021;-77
2023/12/18 09:05:33;;;;;;;30.77;15.65;;;;;;;;;;6123537;23;20005;-77
2023/12/18 09:08:00;;;;;;;27.65;16.45;;;;;;;;;;6123871;23;20021;-74
2023/12/18 09:10:25;;;;;;;33.05;15.50;;;;;;;;;;6097950;23;20002;-74
2023/12/18 09:12:52;;;;;;;27.23;15.80;;;;;;;;;;6123792;23;20014;-74
2023/12/18 09:15:19;;;;;;;25.02;14.27;;;;;;;;;;6123502;23;20396;-76
2023/12/18 09:17:45;;;;;;;24.42;13.65;;;;;;;;;;6123762;23;20068;-74
2023/12/18 09:20:11;;;;;;;28.55;15.45;;;;;;;;;;6123656;23;20025;-75
2023/12/18 09:22:37;;;;;;;27.00;14.45;;;;;;;;;;6124071;23;20033;-76
2023/12/18 09:25:05;;;;;;;35.85;15.90;;;;;;;;;;6127390;23;20436;-75
2023/12/18 09:27:34;;;;;;;38.88;18.90;;;;;;;;;;6102195;23;20014;-76
2023/12/18 09:30:00;;;;;;;40.25;16.55;;;;;;;;;;6123356;23;20089;-74
2023/12/18 09:32:26;;;;;;;31.70;15.88;;;;;;;;;;6122185;23;20037;-75
2023/12/18 09:34:52;;;;;;;27.23;14.88;;;;;;;;;;6124002;23;20002;-73
2023/12/18 09:37:18;;;;;;;24.95;14.15;;;;;;;;;;6123904;23;20344;-73
2023/12/18 09:39:44;;;;;;;28.33;15.35;;;;;;;;;;6098128;23;20006;-76
2023/12/18 09:42:10;;;;;;;21.13;12.30;;;;;;;;;;6122454;23;20041;-75
2023/12/18 09:44:36;;;;;;;21.05;12.93;;;;;;;;;;6123129;23;20002;-75
2023/12/18 09:47:03;;;;;;;21.35;12.18;;;;;;;;;;6121952;23;20100;-76
2023/12/18 09:49:30;;;;;;;30.45;13.73;;;;;;;;;;6124723;23;20006;-75
2023/12/18 09:52:03;;;;;;;21.90;12.52;;;;;;;;;;6124013;23;20020;-75
2023/12/18 09:54:30;;;;;;;22.35;11.98;;;;;;;;;;6124265;23;20010;-75
2023/12/18 09:56:57;;;;;;;21.50;10.48;;;;;;;;;;6124011;23;20002;-76
2023/12/18 09:59:24;;;;;;;17.98;10.23;;;;;;;;;;6124137;23;20010;-75
2023/12/18 10:01:53;;;;;;;18.02;8.90;;;;;;;;;;6124457;23;20016;-75
2023/12/18 10:04:19;;;;;;;19.92;10.82;;;;;;;;;;6124276;23;20089;-75
2023/12/18 10:06:45;;;;;;;19.00;10.95;;;;;;;;;;6124570;23;20037;-75
2023/12/18 10:09:15;;;;;;;14.73;8.65;;;;;;;;;;6124028;23;20085;-74
2023/12/18 10:11:48;;;;;;;17.52;9.82;;;;;;;;;;6124324;23;20016;-75
2023/12/18 10:14:14;;;;;;;28.13;12.05;;;;;;;;;;6122337;23;20021;-77
2023/12/18 10:16:41;;;;;;;18.27;8.73;;;;;;;;;;6122317;23;20464;-75
2023/12/18 10:19:09;;;;;;;15.63;9.35;;;;;;;;;;6097818;23;20025;-75
2023/12/18 10:21:38;;;;;;;14.40;8.50;;;;;;;;;;6123915;23;20333;-76
2023/12/18 10:24:07;;;;;;;27.42;10.68;;;;;;;;;;6123301;23;20136;-74
2023/12/18 10:26:33;;;;;;;16.63;10.20;;;;;;;;;;6123704;23;20265;-75
2023/12/18 10:28:59;;;;;;;22.00;11.02;;;;;;;;;;6125620;23;20006;-76
2023/12/18 10:31:26;;;;;;;20.00;11.52;;;;;;;;;;6099635;23;20010;-75
2023/12/18 10:33:53;;;;;;;18.63;11.43;;;;;;;;;;6125949;23;20088;-76
2023/12/18 10:36:19;;;;;;;24.15;11.85;;;;;;;;;;6126692;23;20437;-76
2023/12/18 10:38:49;;;;;;;22.15;11.13;;;;;;;;;;6126002;23;20009;-74
2023/12/18 10:41:19;;;;;;;18.95;11.45;;;;;;;;;;6126010;23;20013;-76
2023/12/18 10:43:48;;;;;;;26.60;14.88;;;;;;;;;;6126195;23;20310;-76
2023/12/18 10:46:14;;;;;;;27.35;14.43;;;;;;;;;;6098962;23;20049;-75
2023/12/18 10:48:41;;;;;;;19.83;12.10;;;;;;;;;;6124991;23;20496;-75
2023/12/18 10:51:10;;;;;;;16.83;10.18;;;;;;;;;;6125368;23;20013;-74
2023/12/18 10:53:37;;;;;;;18.52;10.68;;;;;;;;;;6125840;23;20528;-76
2023/12/18 10:56:06;;;;;;;16.65;9.85;;;;;;;;;;6127255;23;20010;-75
2023/12/18 10:58:33;;;;;;;23.42;10.80;;;;;;;;;;6101540;23;19998;-74
2023/12/18 11:01:00;;;;;;;18.75;9.90;;;;;;;;;;6125276;23;20069;-74
2023/12/18 11:03:27;;;;;;;16.13;9.65;;;;;;;;;;6128192;23;20092;-75
2023/12/18 11:05:56;;;;;;;15.57;9.43;;;;;;;;;;6134786;23;20401;-76
2023/12/18 11:08:23;;;;;;;16.92;9.70;;;;;;;;;;6126798;23;20009;-75
2023/12/18 11:10:49;;;;;;;17.02;9.93;;;;;;;;;;6126812;23;20014;-75
2023/12/18 11:13:25;;;;;;;16.08;9.95;;;;;;;;;;6099791;23;20085;-75
2023/12/18 11:16:03;;;;;;;15.85;9.20;;;;;;;;;;6129326;23;20013;-76
2023/12/18 11:18:55;;;;;;;17.00;9.60;;;;;;;;;;6125984;23;20010;-76
2023/12/18 11:21:22;;;;;;;19.00;9.48;;;;;;;;;;6125498;23;20021;-76
2023/12/18 11:23:50;;;;;;;15.13;9.70;;;;;;;;;;6125478;23;20199;-77
2023/12/18 11:26:18;;;;;;;12.60;7.65;;;;;;;;;;6125353;23;20010;-77
2023/12/18 11:28:47;;;;;;;12.40;7.60;;;;;;;;;;6126234;23;20001;-78
2023/12/18 11:31:20;;;;;;;18.58;9.70;;;;;;;;;;6100757;23;20014;-77
2023/12/18 11:34:02;;;;;;;15.77;9.02;;;;;;;;;;6099286;23;20462;-76
2023/12/18 11:36:29;;;;;;;14.85;8.02;;;;;;;;;;6098942;23;20065;-76
2023/12/18 11:38:58;;;;;;;15.40;7.68;;;;;;;;;;6099261;23;20010;-76
2023/12/18 11:41:47;;;;;;;12.90;7.40;;;;;;;;;;6125613;23;20060;-75
2023/12/18 11:44:16;;;;;;;11.68;7.30;;;;;;;;;;6125548;23;20385;-75
2023/12/18 11:46:44;;;;;;;16.30;9.20;;;;;;;;;;6125480;23;20348;-77
2023/12/18 11:49:12;;;;;;;16.58;7.95;;;;;;;;;;6123260;23;20014;-76
2023/12/18 11:51:44;;;;;;;15.93;8.43;;;;;;;;;;6100690;23;20045;-76
2023/12/18 11:54:15;;;;;;;20.20;8.20;;;;;;;;;;6123844;23;20006;-76
2023/12/18 11:56:41;;;;;;;11.55;7.22;;;;;;;;;;6125137;23;20034;-75
2023/12/18 11:59:08;;;;;;;12.65;7.50;;;;;;;;;;6123653;23;20006;-76
2023/12/18 12:01:37;;;;;;;17.45;8.32;;;;;;;;;;6099226;23;20018;-76
2023/12/18 12:04:05;;;;;;;19.55;8.35;;;;;;;;;;6098699;23;20421;-76
2023/12/18 12:06:32;;;;;;;19.95;8.68;;;;;;;;;;6124446;23;20005;-76
2023/12/18 12:08:57;;;;;;;16.30;9.50;;;;;;;;;;6098337;23;20345;-77
2023/12/18 12:11:25;;;;;;;22.45;11.20;;;;;;;;;;6125428;23;20070;-76
2023/12/18 12:13:54;;;;;;;19.80;10.48;;;;;;;;;;6125091;23;20057;-75
2023/12/18 12:16:20;;;;;;;12.32;8.25;;;;;;;;;;6125880;23;20460;-78
2023/12/18 12:18:47;;;;;;;12.73;7.55;;;;;;;;;;6098883;23;20006;-77
2023/12/18 12:21:14;;;;;;;16.50;7.82;;;;;;;;;;6125243;23;20349;-77
2023/12/18 12:23:40;;;;;;;17.50;9.38;;;;;;;;;;6125243;23;20093;-75
2023/12/18 12:26:08;;;;;;;18.20;8.60;;;;;;;;;;6124564;23;20445;-76
2023/12/18 12:28:34;;;;;;;19.13;9.88;;;;;;;;;;6098290;23;20036;-76
2023/12/18 12:31:03;;;;;;;14.35;9.13;;;;;;;;;;6125320;23;20013;-75
2023/12/18 12:33:44;;;;;;;16.88;9.23;;;;;;;;;;6124351;23;20029;-75
2023/12/18 12:36:14;;;;;;;14.38;8.57;;;;;;;;;;6098561;23;20006;-77
2023/12/18 12:38:43;;;;;;;14.88;8.60;;;;;;;;;;6124234;23;20047;-74
2023/12/18 12:41:10;;;;;;;16.23;8.68;;;;;;;;;;6125103;23;20002;-75
2023/12/18 12:43:36;;;;;;;15.50;8.48;;;;;;;;;;6075860;23;20014;-77
2023/12/18 12:46:02;;;;;;;22.40;10.50;;;;;;;;;;6098786;23;20064;-76
2023/12/18 12:48:29;;;;;;;15.10;9.30;;;;;;;;;;6124957;23;20353;-76
2023/12/18 12:50:56;;;;;;;13.20;7.85;;;;;;;;;;6125173;23;20113;-77
2023/12/18 12:53:23;;;;;;;19.55;11.20;;;;;;;;;;6124529;23;20033;-77
2023/12/18 12:55:50;;;;;;;21.25;11.90;;;;;;;;;;6123689;23;20028;-75
2023/12/18 12:58:15;;;;;;;16.02;7.80;;;;;;;;;;6124601;23;20006;-75
2023/12/18 13:00:41;;;;;;;18.70;7.60;;;;;;;;;;6125053;23;20009;-76
2023/12/18 13:03:07;;;;;;;12.73;7.93;;;;;;;;;;6124690;23;20017;-74
2023/12/18 13:05:33;;;;;;;11.07;6.95;;;;;;;;;;6125634;23;20006;-75
2023/12/18 13:08:00;;;;;;;24.67;9.40;;;;;;;;;;6122123;23;20038;-76
2023/12/18 13:10:26;;;;;;;14.30;7.55;;;;;;;;;;6124138;23;20074;-76
2023/12/18 13:12:53;;;;;;;11.73;6.88;;;;;;;;;;6123884;23;20388;-75
2023/12/18 13:15:19;;;;;;;17.40;7.82;;;;;;;;;;6123929;23;20006;-75
2023/12/18 13:17:45;;;;;;;11.85;6.63;;;;;;;;;;6097938;23;20050;-75
2023/12/18 13:20:13;;;;;;;18.40;7.78;;;;;;;;;;6122544;23;20065;-75
2023/12/18 13:22:40;;;;;;;19.50;8.55;;;;;;;;;;6125142;23;20436;-76
2023/12/18 13:25:06;;;;;;;13.02;8.15;;;;;;;;;;6097492;23;20032;-76
2023/12/18 13:27:32;;;;;;;12.77;7.47;;;;;;;;;;6125730;23;20122;-78
2023/12/18 13:29:57;;;;;;;13.75;7.90;;;;;;;;;;6124912;23;20010;-76
2023/12/18 13:32:28;;;;;;;13.23;7.10;;;;;;;;;;6124226;23;20010;-77
2023/12/18 13:34:54;;;;;;;16.35;7.40;;;;;;;;;;6125011;23;20029;-77
2023/12/18 13:37:20;;;;;;;11.35;6.35;;;;;;;;;;6098955;23;20429;-77
2023/12/18 13:39:47;;;;;;;14.23;7.90;;;;;;;;;;6127982;23;20013;-76
2023/12/18 13:42:14;;;;;;;19.48;10.23;;;;;;;;;;6076615;23;20452;-77
2023/12/18 13:44:42;;;;;;;28.83;8.90;;;;;;;;;;6126084;23;20064;-78
2023/12/18 13:47:08;;;;;;;16.33;7.18;;;;;;;;;;6131891;23;20441;-76
2023/12/18 13:49:36;;;;;;;12.63;7.13;;;;;;;;;;6098714;23;20018;-77
2023/12/18 13:52:01;;;;;;;15.05;7.28;;;;;;;;;;6124724;23;20005;-77
2023/12/18 13:54:28;;;;;;;16.92;7.45;;;;;;;;;;6123262;23;20017;-76
2023/12/18 13:56:55;;;;;;;9.02;5.47;;;;;;;;;;6123702;23;20021;-76
2023/12/18 13:59:21;;;;;;;22.25;8.10;;;;;;;;;;6098349;23;20018;-77
2023/12/18 14:01:47;;;;;;;13.70;6.72;;;;;;;;;;6123108;23;20069;-76
2023/12/18 14:04:13;;;;;;;11.32;6.72;;;;;;;;;;6125760;23;20421;-77
2023/12/18 14:06:40;;;;;;;15.98;7.28;;;;;;;;;;6124926;23;20002;-77
2023/12/18 14:09:06;;;;;;;10.35;6.32;;;;;;;;;;6125042;23;20060;-77
2023/12/18 14:11:33;;;;;;;12.57;6.55;;;;;;;;;;6123428;23;20005;-76
2023/12/18 14:14:00;;;;;;;12.75;6.20;;;;;;;;;;6124884;23;20024;-77
2023/12/18 14:16:26;;;;;;;19.00;7.10;;;;;;;;;;6125533;23;20006;-74
2023/12/18 14:18:53;;;;;;;11.13;5.90;;;;;;;;;;6128278;23;20028;-75